Time;durP1;ratioP1;P1;durP2;ratioP2;P2;SDS_P1;SDS_P2;PMS_P1;PMS_P2;Temp;Humidity;BMP_temperature;BMP_pressure;BME280_temperature;BME280_humidity;BME280_pressure;Samples;Min_cycle;Max_cycle;Signal;HPM_P1;HPM_P2
2023/09/05 00:01:12;;;;;;;2.97;2.67;;;;;;;24.23;66.10;98191.25;5015837;28;20466;-26
2023/09/05 00:03:40;;;;;;;3.13;2.70;;;;;;;24.23;65.61;98196.38;5020321;28;20201;-26
2023/09/05 00:06:10;;;;;;;2.60;2.40;;;;;;;24.23;65.88;98192.94;5013088;28;20261;-26
2023/09/05 00:08:39;;;;;;;2.83;2.63;;;;;;;24.24;65.54;98197.22;5017683;28;20200;-26
2023/09/05 00:11:06;;;;;;;3.03;2.73;;;;;;;24.24;65.55;98197.22;4993729;28;20233;-26
2023/09/05 00:13:33;;;;;;;2.70;2.50;;;;;;;24.24;65.78;98192.97;5016984;28;20225;-26
2023/09/05 00:15:59;;;;;;;2.80;2.43;;;;;;;24.24;65.50;98190.41;5015811;28;20272;-26
2023/09/05 00:18:26;;;;;;;2.13;2.03;;;;;;;24.24;66.04;98195.56;5012417;28;20202;-26
2023/09/05 00:20:55;;;;;;;2.87;2.63;;;;;;;24.24;65.73;98190.41;5011365;28;20276;-27
2023/09/05 00:23:24;;;;;;;2.83;2.57;;;;;;;24.24;65.91;98190.41;5010334;28;20202;-26
2023/09/05 00:25:51;;;;;;;2.70;2.50;;;;;;;24.24;65.81;98186.97;5019677;28;20201;-26
2023/09/05 00:28:21;;;;;;;2.50;2.30;;;;;;;24.24;65.74;98186.97;5009862;28;20285;-26
2023/09/05 00:30:48;;;;;;;2.70;2.50;;;;;;;24.24;65.80;98187.84;5015420;28;20210;-26
2023/09/05 00:33:15;;;;;;;2.90;2.70;;;;;;;24.25;65.61;98188.72;5005921;28;20234;-26
2023/09/05 00:35:41;;;;;;;2.20;2.10;;;;;;;24.24;65.73;98186.97;5020783;28;20221;-26
2023/09/05 00:38:08;;;;;;;3.03;2.73;;;;;;;24.24;65.46;98180.13;5013453;28;20213;-26
2023/09/05 00:40:35;;;;;;;2.70;2.50;;;;;;;24.25;65.98;98178.44;5033766;22;20217;-27
2023/09/05 00:43:01;;;;;;;3.07;2.77;;;;;;;24.25;65.62;98179.28;5030964;28;20300;-27
2023/09/05 00:45:29;;;;;;;2.83;2.53;;;;;;;24.24;65.92;98169.84;5031295;28;20284;-29
2023/09/05 00:47:57;;;;;;;2.80;2.47;;;;;;;24.24;65.62;98168.97;5030550;28;20205;-27
2023/09/05 00:50:24;;;;;;;2.23;2.13;;;;;;;24.20;65.68;98152.63;5026571;28;20273;-27
2023/09/05 00:52:51;;;;;;;2.63;2.43;;;;;;;24.25;65.81;98155.34;5004049;28;20256;-30
2023/09/05 00:55:17;;;;;;;2.63;2.43;;;;;;;24.24;65.88;98158.69;5007620;28;20204;-27
2023/09/05 00:57:44;;;;;;;2.60;2.40;;;;;;;24.23;65.89;98160.44;4974201;28;20292;-27
2023/09/05 01:00:10;;;;;;;3.00;2.67;;;;;;;24.24;65.88;98157.03;5001962;28;20310;-27
2023/09/05 01:02:37;;;;;;;3.30;2.70;;;;;;;24.24;65.91;98159.59;5002530;28;20217;-27
2023/09/05 01:05:06;;;;;;;2.50;2.30;;;;;;;24.24;65.95;98161.28;5014732;28;20198;-27
2023/09/05 01:08:04;;;;;;;2.67;2.43;;;;;;;24.23;65.74;98160.44;4993534;28;20219;-27
2023/09/05 01:10:54;;;;;;;2.67;2.47;;;;;;;24.22;65.76;98153.53;5009197;28;20210;-29
2023/09/05 01:13:25;;;;;;;2.47;2.27;;;;;;;24.23;65.98;98160.44;5016165;28;20245;-28
2023/09/05 01:15:53;;;;;;;2.73;2.53;;;;;;;24.22;65.91;98150.09;5013236;28;20201;-27
2023/09/05 01:18:20;;;;;;;3.10;2.80;;;;;;;24.21;65.92;98154.38;5011030;28;20679;-27
2023/09/05 01:21:14;;;;;;;2.80;2.50;;;;;;;24.21;65.84;98148.34;4988145;28;20291;-28
2023/09/05 01:23:45;;;;;;;2.60;2.40;;;;;;;24.22;65.97;98153.53;4997874;28;20224;-27
2023/09/05 01:26:12;;;;;;;2.63;2.43;;;;;;;24.21;65.80;98154.38;5019568;28;20209;-29
2023/09/05 01:28:41;;;;;;;2.73;2.50;;;;;;;24.19;65.80;98144.88;4984691;28;20217;-28
2023/09/05 01:31:09;;;;;;;2.47;2.27;;;;;;;24.21;65.66;98151.78;4998363;28;20222;-29
2023/09/05 01:33:39;;;;;;;2.27;2.17;;;;;;;24.21;65.69;98151.78;5002531;28;20315;-27
2023/09/05 01:36:06;;;;;;;2.77;2.33;;;;;;;24.21;65.80;98149.22;5009318;28;20202;-27
2023/09/05 01:38:33;;;;;;;2.13;2.00;;;;;;;24.21;65.73;98149.22;4994303;28;20207;-28
2023/09/05 01:41:00;;;;;;;2.77;2.50;;;;;;;24.21;65.68;98141.53;5012283;28;20313;-27
2023/09/05 01:43:26;;;;;;;2.40;2.20;;;;;;;24.20;65.80;98138.91;5018599;28;20748;-27
2023/09/05 01:45:53;;;;;;;2.10;2.00;;;;;;;24.21;66.01;98151.78;5018872;28;20202;-30
2023/09/05 01:48:20;;;;;;;2.40;2.20;;;;;;;24.22;65.75;98143.25;5014581;28;20202;-27
2023/09/05 01:50:46;;;;;;;2.70;2.50;;;;;;;24.22;65.70;98150.09;5020748;28;20309;-32
2023/09/05 01:53:13;;;;;;;2.70;2.50;;;;;;;24.21;65.85;98146.66;5021529;28;20276;-30
2023/09/05 01:55:39;;;;;;;2.60;2.40;;;;;;;24.22;65.71;98148.38;5023211;28;20226;-27
2023/09/05 01:58:06;;;;;;;2.40;2.20;;;;;;;24.23;65.92;98144.13;5014749;28;20226;-29
2023/09/05 02:00:32;;;;;;;2.43;2.23;;;;;;;24.21;65.80;98143.19;5015442;28;20229;-27
2023/09/05 02:02:59;;;;;;;2.47;2.27;;;;;;;24.21;65.66;98146.66;5020575;28;20675;-29
2023/09/05 02:05:26;;;;;;;2.50;2.30;;;;;;;24.22;65.79;98153.53;5020024;28;20202;-28
2023/09/05 02:07:52;;;;;;;2.50;2.30;;;;;;;24.22;66.00;98150.09;5014836;28;20206;-27
2023/09/05 02:10:19;;;;;;;2.13;2.03;;;;;;;24.22;66.07;98148.38;5010182;28;20268;-27
2023/09/05 02:12:46;;;;;;;2.50;2.30;;;;;;;24.22;65.98;98150.97;5020427;28;20704;-27
2023/09/05 02:15:12;;;;;;;2.30;2.10;;;;;;;24.22;65.99;98152.66;4994571;28;20234;-28
2023/09/05 02:17:39;;;;;;;2.60;2.40;;;;;;;24.21;65.98;98150.91;5013282;28;20574;-28
2023/09/05 02:20:06;;;;;;;2.40;2.20;;;;;;;24.22;65.80;98148.38;5013926;28;20299;-27
2023/09/05 02:22:33;;;;;;;2.10;2.00;;;;;;;24.14;65.83;98137.03;5014385;28;20687;-27
2023/09/05 02:25:00;;;;;;;2.40;2.20;;;;;;;24.22;66.15;98153.53;5014694;28;20228;-27
2023/09/05 02:27:27;;;;;;;2.63;2.43;;;;;;;24.22;65.79;98150.97;5014218;28;20199;-27
2023/09/05 02:29:58;;;;;;;2.53;2.33;;;;;;;24.23;65.77;98154.41;5014693;28;20256;-27
2023/09/05 02:32:25;;;;;;;2.53;2.33;;;;;;;24.15;65.71;98137.91;5014587;28;20651;-30
2023/09/05 02:34:52;;;;;;;2.37;2.17;;;;;;;24.22;65.94;98145.81;5013759;28;20290;-27
2023/09/05 02:37:18;;;;;;;2.37;2.17;;;;;;;24.23;65.98;98146.69;5014261;28;20206;-27
2023/09/05 02:39:45;;;;;;;2.43;2.23;;;;;;;24.23;66.13;98136.44;5010543;28;20724;-30
2023/09/05 02:42:12;;;;;;;2.50;2.30;;;;;;;24.24;65.96;98140.72;5011411;28;20237;-27
2023/09/05 02:44:38;;;;;;;2.10;2.00;;;;;;;24.24;66.13;98138.16;5013684;28;20198;-27
2023/09/05 02:47:05;;;;;;;2.60;2.40;;;;;;;24.23;65.76;98136.44;5013892;28;20229;-33
2023/09/05 02:49:31;;;;;;;2.20;2.10;;;;;;;24.22;66.06;98138.13;5013233;28;20194;-27
2023/09/05 02:51:58;;;;;;;2.37;2.20;;;;;;;24.22;65.85;98139.84;5013674;28;20237;-27
2023/09/05 02:54:27;;;;;;;2.20;2.00;;;;;;;24.23;65.94;98147.59;5010774;28;20260;-27
2023/09/05 02:56:55;;;;;;;2.47;2.10;;;;;;;24.22;65.56;98148.38;5009745;28;20209;-28
2023/09/05 02:59:22;;;;;;;2.20;2.10;;;;;;;24.22;65.63;98150.97;5011972;28;20289;-31
2023/09/05 03:01:48;;;;;;;2.47;2.20;;;;;;;24.23;65.52;98152.72;5013068;28;20653;-28
2023/09/05 03:04:15;;;;;;;2.43;2.23;;;;;;;24.22;66.08;98145.81;5006313;28;20203;-28
2023/09/05 03:06:41;;;;;;;2.00;1.90;;;;;;;24.22;65.77;98142.41;5013944;28;20198;-27
2023/09/05 03:09:08;;;;;;;2.17;2.00;;;;;;;24.21;66.14;98144.09;5009885;28;20265;-27
2023/09/05 03:11:35;;;;;;;2.03;1.90;;;;;;;24.20;65.68;98133.78;5008907;28;20242;-27
2023/09/05 03:14:02;;;;;;;2.50;2.30;;;;;;;24.20;66.15;98146.63;5010266;28;20233;-27
2023/09/05 03:16:28;;;;;;;2.13;2.03;;;;;;;24.20;66.01;98142.34;5009589;28;20785;-27
2023/09/05 03:18:59;;;;;;;2.23;2.10;;;;;;;24.21;66.03;98141.53;5011320;28;20609;-28
2023/09/05 03:21:26;;;;;;;2.33;2.13;;;;;;;24.20;65.71;98141.47;5013248;28;20688;-27
2023/09/05 03:23:53;;;;;;;2.10;1.90;;;;;;;24.20;66.07;98144.94;5010654;28;20258;-27
2023/09/05 03:26:19;;;;;;;2.00;1.90;;;;;;;24.19;66.16;98148.31;5010201;28;20205;-28
2023/09/05 03:28:47;;;;;;;2.33;2.13;;;;;;;24.20;65.83;98162.91;5011786;28;20198;-28
2023/09/05 03:31:14;;;;;;;2.10;2.00;;;;;;;24.20;66.42;98147.50;5011410;28;20498;-27
2023/09/05 03:33:40;;;;;;;2.47;2.27;;;;;;;24.20;65.67;98162.03;4994387;28;20250;-27
2023/09/05 03:36:09;;;;;;;3.60;2.23;;;;;;;24.20;66.05;98159.44;4979099;28;20241;-27
2023/09/05 03:38:36;;;;;;;1.87;1.77;;;;;;;24.20;65.95;98159.44;5012940;28;20199;-28
2023/09/05 03:41:02;;;;;;;2.07;1.97;;;;;;;24.19;65.69;98152.59;5010963;28;20272;-27
2023/09/05 03:43:29;;;;;;;2.33;2.13;;;;;;;24.20;66.03;98154.31;5012860;28;20653;-27
2023/09/05 03:45:55;;;;;;;2.43;2.20;;;;;;;24.20;65.97;98156.88;4989780;28;20807;-27
2023/09/05 03:48:22;;;;;;;2.40;2.20;;;;;;;24.13;65.90;98147.28;5012836;28;20591;-29
2023/09/05 03:50:49;;;;;;;2.20;2.00;;;;;;;24.19;66.11;98161.13;5012720;28;20724;-27
2023/09/05 03:53:15;;;;;;;2.40;2.20;;;;;;;24.18;66.30;98158.53;5012882;28;20210;-27
2023/09/05 03:55:42;;;;;;;2.10;2.00;;;;;;;24.15;66.22;98149.06;5008004;28;20203;-27
2023/09/05 03:58:11;;;;;;;2.27;2.07;;;;;;;24.18;65.73;98151.72;5009707;28;20229;-27
2023/09/05 04:00:37;;;;;;;2.30;2.20;;;;;;;24.19;65.91;98150.03;5010424;28;20222;-27
2023/09/05 04:03:04;;;;;;;2.30;2.10;;;;;;;24.18;65.72;98149.13;5011643;28;20238;-28
2023/09/05 04:05:32;;;;;;;2.30;2.10;;;;;;;24.18;66.15;98145.69;5011760;28;20744;-30
2023/09/05 04:07:59;;;;;;;2.23;2.03;;;;;;;24.19;65.85;98150.03;5013313;28;20263;-31
2023/09/05 04:10:25;;;;;;;2.37;2.17;;;;;;;24.17;65.73;98139.69;5010566;28;20214;-27
2023/09/05 04:12:52;;;;;;;1.90;1.80;;;;;;;24.18;66.12;98140.56;5012966;28;20669;-27
2023/09/05 04:15:22;;;;;;;2.33;2.13;;;;;;;24.18;65.85;98140.56;5011366;28;20293;-27
2023/09/05 04:17:50;;;;;;;2.30;2.10;;;;;;;24.19;66.38;98147.44;5009528;28;20202;-27
2023/09/05 04:20:18;;;;;;;1.80;1.70;;;;;;;24.18;66.18;98143.13;5011883;28;20214;-27
2023/09/05 04:22:45;;;;;;;2.27;2.07;;;;;;;24.16;65.78;98148.22;5011676;28;20199;-28
2023/09/05 04:25:11;;;;;;;2.17;2.00;;;;;;;24.18;66.06;98161.09;5011149;28;20203;-30
2023/09/05 04:27:38;;;;;;;2.13;2.03;;;;;;;24.17;66.40;98162.81;5009116;28;20210;-29
2023/09/05 04:30:06;;;;;;;2.67;2.20;;;;;;;24.17;65.06;98175.66;5008502;28;21053;-31
2023/09/05 04:32:34;;;;;;;2.27;2.07;;;;;;;24.17;65.07;98182.47;5010734;28;20206;-27
2023/09/05 04:35:01;;;;;;;2.37;2.17;;;;;;;24.17;65.50;98178.22;5004298;28;20238;-34
2023/09/05 04:37:28;;;;;;;3.80;2.30;;;;;;;24.17;65.45;98167.06;5011610;28;20195;-31
2023/09/05 04:39:55;;;;;;;2.60;2.40;;;;;;;24.16;64.74;98171.31;5010992;28;20248;-27
2023/09/05 04:42:24;;;;;;;2.63;2.40;;;;;;;24.16;62.94;98158.47;5010729;28;20322;-28
2023/09/05 04:44:51;;;;;;;4.43;2.90;;;;;;;24.17;61.59;98159.38;5011564;28;20202;-28
2023/09/05 04:47:28;;;;;;;3.70;2.87;;;;;;;24.14;60.95;98165.28;4994200;28;20212;-27
2023/09/05 04:49:56;;;;;;;4.70;3.20;;;;;;;24.15;60.29;98169.59;5011760;28;20202;-30
2023/09/05 04:52:24;;;;;;;3.53;3.13;;;;;;;24.14;59.18;98173.00;5012042;28;20681;-28
2023/09/05 04:54:50;;;;;;;5.73;3.17;;;;;;;24.12;58.11;98173.75;5011496;28;20230;-27
2023/09/05 04:57:17;;;;;;;3.90;3.40;;;;;;;24.11;58.23;98175.47;5011413;28;20209;-27
2023/09/05 04:59:44;;;;;;;5.00;3.10;;;;;;;24.11;57.88;98172.03;5011439;28;20216;-27
2023/09/05 05:02:11;;;;;;;5.00;3.10;;;;;;;24.08;56.95;98179.66;5011668;28;20252;-31
2023/09/05 05:04:38;;;;;;;3.00;2.73;;;;;;;24.07;56.62;98189.03;5006005;28;20692;-28
2023/09/05 05:07:05;;;;;;;4.33;3.40;;;;;;;24.03;56.01;98181.19;5006161;28;20206;-27
2023/09/05 05:09:31;;;;;;;3.73;3.27;;;;;;;24.01;56.46;98185.44;5009027;28;20225;-27
2023/09/05 05:11:59;;;;;;;4.03;3.00;;;;;;;23.97;56.55;98184.47;5011590;28;20226;-29
2023/09/05 05:14:25;;;;;;;5.53;3.23;;;;;;;23.95;56.01;98183.53;5006868;28;20880;-27
2023/09/05 05:16:53;;;;;;;4.90;3.30;;;;;;;23.93;56.06;98187.75;4994171;28;20198;-28
2023/09/05 05:19:21;;;;;;;4.00;3.33;;;;;;;23.90;56.13;98187.66;5006983;28;20209;-28
2023/09/05 05:21:48;;;;;;;3.90;3.30;;;;;;;23.90;55.94;98195.34;5013331;28;20692;-27
2023/09/05 05:24:15;;;;;;;4.17;3.17;;;;;;;23.88;56.04;98191.84;5015880;28;20233;-27
2023/09/05 05:26:42;;;;;;;4.30;3.30;;;;;;;23.89;56.22;98196.16;4994377;28;20190;-27
2023/09/05 05:29:09;;;;;;;4.70;3.20;;;;;;;23.88;56.59;98194.41;4997839;28;20198;-28
2023/09/05 05:31:36;;;;;;;5.37;3.07;;;;;;;23.86;56.31;98190.94;5015102;28;20241;-27
2023/09/05 05:34:03;;;;;;;4.00;3.30;;;;;;;23.88;56.51;98191.84;5014982;28;20206;-38
2023/09/05 05:36:29;;;;;;;6.90;3.30;;;;;;;23.88;57.13;98188.41;5013475;28;20257;-27
2023/09/05 05:38:57;;;;;;;3.47;3.10;;;;;;;23.88;57.43;98191.84;5015107;28;20285;-27
2023/09/05 05:41:24;;;;;;;4.93;3.40;;;;;;;23.88;56.82;98185.84;5014904;28;20244;-28
2023/09/05 05:43:50;;;;;;;5.23;3.30;;;;;;;23.87;56.30;98186.66;5014063;28;20252;-28
2023/09/05 05:46:20;;;;;;;4.87;3.20;;;;;;;23.87;56.19;98189.25;5015167;28;20210;-27
2023/09/05 05:48:46;;;;;;;3.47;3.13;;;;;;;23.88;56.18;98185.84;5015501;28;20691;-27
2023/09/05 05:51:13;;;;;;;5.00;3.07;;;;;;;23.87;56.13;98190.13;5014998;28;20283;-27
2023/09/05 05:53:41;;;;;;;3.43;3.10;;;;;;;23.84;56.11;98179.75;5015545;28;20202;-27
2023/09/05 05:56:11;;;;;;;4.00;2.90;;;;;;;23.87;56.25;98182.41;4998147;28;20230;-27
2023/09/05 05:58:38;;;;;;;4.60;3.00;;;;;;;23.87;56.30;98184.09;5015336;28;20280;-28
2023/09/05 06:01:06;;;;;;;3.37;3.07;;;;;;;23.88;56.60;98185.84;5014862;28;20226;-37
2023/09/05 06:03:36;;;;;;;7.50;2.90;;;;;;;23.87;56.64;98185.00;5015278;28;20199;-27
2023/09/05 06:06:05;;;;;;;4.53;2.87;;;;;;;23.88;57.12;98186.72;5014957;28;20290;-27
2023/09/05 06:08:32;;;;;;;3.43;3.13;;;;;;;23.89;57.32;98190.16;4990449;28;20199;-30
2023/09/05 06:10:59;;;;;;;6.00;3.47;;;;;;;23.90;56.96;98187.66;4980360;28;20241;-27
2023/09/05 06:13:25;;;;;;;4.50;3.43;;;;;;;23.90;57.10;98187.66;5012404;28;20194;-28
2023/09/05 06:15:52;;;;;;;4.53;3.30;;;;;;;23.91;57.35;98183.38;5012820;28;20198;-29
2023/09/05 06:18:19;;;;;;;8.47;3.30;;;;;;;23.92;57.69;98178.28;5013861;28;20206;-28
2023/09/05 06:20:45;;;;;;;4.20;3.20;;;;;;;23.93;58.01;98174.03;5013284;28;20218;-28
2023/09/05 06:23:12;;;;;;;6.27;3.30;;;;;;;23.94;58.49;98173.19;5014592;28;20202;-27
2023/09/05 06:25:39;;;;;;;5.73;3.00;;;;;;;23.95;58.43;98174.94;5014386;28;20206;-27
2023/09/05 06:28:06;;;;;;;4.93;3.20;;;;;;;23.96;58.84;98179.28;5014413;28;20252;-27
2023/09/05 06:30:32;;;;;;;4.30;2.93;;;;;;;23.97;59.08;98173.31;5014473;28;20713;-27
2023/09/05 06:32:59;;;;;;;3.63;3.33;;;;;;;23.98;59.45;98178.50;5013772;28;20284;-30
2023/09/05 06:35:26;;;;;;;3.20;2.90;;;;;;;23.99;59.80;98177.69;5014134;28;20294;-27
2023/09/05 06:37:55;;;;;;;3.37;2.60;;;;;;;23.90;59.75;98167.09;5013392;28;20268;-27
2023/09/05 06:40:23;;;;;;;3.67;2.90;;;;;;;24.02;59.79;98189.72;5013877;28;20245;-27
2023/09/05 06:42:51;;;;;;;5.90;2.73;;;;;;;24.02;59.94;98184.59;5014356;28;20218;-32
2023/09/05 06:45:17;;;;;;;3.47;3.17;;;;;;;24.00;60.09;98179.41;5014432;28;20669;-27
2023/09/05 06:47:44;;;;;;;3.70;3.00;;;;;;;24.04;60.60;98183.81;5014283;28;20583;-29
2023/09/05 06:50:11;;;;;;;4.67;2.80;;;;;;;24.03;60.68;98179.50;5014046;28;20222;-27
2023/09/05 06:52:39;;;;;;;3.90;2.90;;;;;;;24.05;60.89;98177.88;5013592;28;20195;-28
2023/09/05 06:55:05;;;;;;;4.13;3.30;;;;;;;24.05;60.66;98171.84;5007623;28;20217;-27
2023/09/05 06:57:33;;;;;;;3.23;2.73;;;;;;;24.01;60.57;98168.31;5005876;28;20213;-29
2023/09/05 06:59:59;;;;;;;3.00;2.60;;;;;;;24.06;61.04;98174.47;5011327;28;20264;-27
2023/09/05 07:02:26;;;;;;;4.07;2.80;;;;;;;24.07;61.12;98177.91;4995259;28;20272;-27
2023/09/05 07:04:52;;;;;;;6.23;3.00;;;;;;;24.05;60.90;98177.00;5005088;28;20203;-29
2023/09/05 07:07:20;;;;;;;4.13;2.50;;;;;;;24.07;61.19;98178.75;5006439;28;20278;-27
2023/09/05 07:09:46;;;;;;;3.10;2.50;;;;;;;24.07;60.96;98173.63;5008645;28;20244;-27
2023/09/05 07:12:13;;;;;;;2.87;2.67;;;;;;;24.07;61.30;98167.66;5010686;28;20202;-29
2023/09/05 07:14:40;;;;;;;4.63;2.70;;;;;;;24.07;61.13;98170.22;5012657;28;20257;-27
2023/09/05 07:17:10;;;;;;;2.87;2.60;;;;;;;24.06;61.14;98169.31;5008575;28;20238;-27
2023/09/05 07:19:37;;;;;;;3.60;3.07;;;;;;;24.07;61.66;98181.31;5009087;28;20254;-27
2023/09/05 07:22:04;;;;;;;2.93;2.67;;;;;;;24.07;61.44;98175.34;5008650;28;20234;-29
2023/09/05 07:24:31;;;;;;;2.80;2.60;;;;;;;24.07;61.59;98180.47;5013466;28;20646;-30
2023/09/05 07:26:58;;;;;;;2.80;2.60;;;;;;;24.07;61.67;98177.91;5006727;28;21151;-27
2023/09/05 07:29:26;;;;;;;2.77;2.57;;;;;;;24.01;61.63;98163.19;5008306;28;20282;-27
2023/09/05 07:31:52;;;;;;;2.73;2.53;;;;;;;24.07;61.76;98183.06;5012319;28;20226;-27
2023/09/05 07:34:19;;;;;;;3.33;2.90;;;;;;;24.08;61.79;98174.50;5009158;28;20211;-27
2023/09/05 07:36:46;;;;;;;3.17;2.87;;;;;;;24.09;61.74;98181.38;5009518;28;20202;-27
2023/09/05 07:39:12;;;;;;;3.10;2.80;;;;;;;24.08;61.77;98179.66;5006479;28;20250;-28
2023/09/05 07:41:39;;;;;;;2.70;2.50;;;;;;;24.08;61.78;98184.78;5008743;28;20222;-27
2023/09/05 07:44:06;;;;;;;4.07;2.40;;;;;;;24.09;61.82;98183.94;5008713;28;20233;-27
2023/09/05 07:46:32;;;;;;;2.40;2.20;;;;;;;24.08;61.98;98174.50;5009701;28;20202;-33
2023/09/05 07:49:00;;;;;;;4.30;2.60;;;;;;;24.10;61.95;98175.44;5008075;28;20228;-27
2023/09/05 07:51:29;;;;;;;2.70;2.50;;;;;;;24.11;62.06;98184.88;5008696;28;20214;-29
2023/09/05 07:54:10;;;;;;;3.20;2.50;;;;;;;24.10;62.20;98178.00;5009824;28;20202;-27
2023/09/05 07:56:37;;;;;;;3.20;2.60;;;;;;;24.10;61.95;98181.41;5006389;28;20304;-27
2023/09/05 07:59:05;;;;;;;2.60;2.40;;;;;;;24.11;62.05;98175.47;5008513;28;20202;-27
2023/09/05 08:01:33;;;;;;;4.60;2.57;;;;;;;24.10;61.90;98180.56;5009535;28;20232;-27
2023/09/05 08:03:59;;;;;;;4.93;2.37;;;;;;;24.09;62.10;98171.97;5010551;28;20622;-29
2023/09/05 08:06:26;;;;;;;3.27;2.87;;;;;;;24.10;62.29;98173.72;5010077;28;20216;-27
2023/09/05 08:08:52;;;;;;;3.03;2.73;;;;;;;24.11;62.30;98178.03;5010686;28;20206;-27
2023/09/05 08:11:19;;;;;;;2.33;2.13;;;;;;;24.11;62.54;98172.91;5008411;28;20616;-27
2023/09/05 08:13:46;;;;;;;3.23;2.63;;;;;;;24.13;62.29;98175.53;5010508;28;20719;-29
2023/09/05 08:16:13;;;;;;;2.60;2.40;;;;;;;24.12;62.44;98174.66;5010705;28;20198;-27
2023/09/05 08:18:40;;;;;;;2.37;2.17;;;;;;;24.11;62.51;98172.03;5011044;28;20202;-28
2023/09/05 08:21:07;;;;;;;2.33;2.13;;;;;;;24.10;62.25;98168.59;5010122;28;20250;-27
2023/09/05 08:23:33;;;;;;;2.63;2.43;;;;;;;24.11;62.24;98172.03;5010846;28;20218;-27
2023/09/05 08:26:00;;;;;;;3.20;2.90;;;;;;;24.11;62.76;98174.59;5010237;28;20232;-33
2023/09/05 08:28:32;;;;;;;2.50;2.30;;;;;;;24.10;62.81;98173.72;5012235;28;20205;-27
2023/09/05 08:31:01;;;;;;;2.67;2.10;;;;;;;24.10;62.49;98173.72;5011083;28;20222;-27
2023/09/05 08:33:30;;;;;;;2.63;2.30;;;;;;;24.10;62.79;98166.00;5010524;28;20226;-29
2023/09/05 08:35:57;;;;;;;2.83;2.40;;;;;;;24.11;62.46;98166.91;5011509;28;20285;-27
2023/09/05 08:38:24;;;;;;;2.90;2.40;;;;;;;24.12;62.80;98160.91;5011016;28;20203;-27
2023/09/05 08:40:53;;;;;;;2.60;2.40;;;;;;;24.11;62.45;98156.63;5011247;28;20234;-27
2023/09/05 08:43:20;;;;;;;2.23;2.10;;;;;;;24.12;62.82;98156.66;5010891;28;20221;-27
2023/09/05 08:45:46;;;;;;;2.23;2.03;;;;;;;24.12;62.70;98155.78;5012564;28;20198;-27
2023/09/05 08:48:13;;;;;;;3.00;2.60;;;;;;;24.12;62.86;98154.09;4994241;28;20696;-30
2023/09/05 08:50:40;;;;;;;2.80;2.60;;;;;;;24.12;62.58;98150.66;5011745;28;20587;-27
2023/09/05 08:53:14;;;;;;;2.60;2.40;;;;;;;24.13;62.44;98142.97;4986274;28;20202;-27
2023/09/05 08:55:42;;;;;;;2.50;2.13;;;;;;;24.11;62.47;98144.66;4983862;28;20194;-27
2023/09/05 08:58:10;;;;;;;2.47;2.27;;;;;;;24.13;62.61;98142.13;4983333;28;20623;-27
2023/09/05 09:00:37;;;;;;;2.40;2.20;;;;;;;24.11;62.91;98131.81;4978761;28;20220;-27
2023/09/05 09:03:05;;;;;;;3.40;2.50;;;;;;;24.13;62.74;98135.28;4986365;28;20222;-30
2023/09/05 09:05:32;;;;;;;2.67;2.43;;;;;;;24.14;62.92;98142.19;5002397;28;20256;-27
2023/09/05 09:07:58;;;;;;;2.60;2.40;;;;;;;24.13;62.56;98140.41;5006142;28;20208;-27
2023/09/05 09:10:25;;;;;;;2.30;2.10;;;;;;;24.14;62.94;98137.03;4995011;28;20311;-27
2023/09/05 09:12:56;;;;;;;2.33;2.13;;;;;;;24.14;62.94;98131.91;5000345;28;20241;-27
2023/09/05 09:15:26;;;;;;;2.43;2.23;;;;;;;24.14;62.94;98131.91;5006013;28;20592;-27
2023/09/05 09:17:53;;;;;;;2.47;2.27;;;;;;;24.16;62.62;98139.66;5003829;28;20210;-28
2023/09/05 09:20:22;;;;;;;2.40;2.20;;;;;;;24.15;62.80;98140.47;4998182;28;20664;-27
2023/09/05 09:22:52;;;;;;;2.20;2.00;;;;;;;24.15;62.58;98141.34;5006420;28;20285;-27
2023/09/05 09:25:22;;;;;;;2.40;2.20;;;;;;;24.15;62.71;98143.91;5002065;28;20218;-28
2023/09/05 09:27:55;;;;;;;2.33;2.20;;;;;;;24.15;62.98;98132.75;5002837;28;20623;-27
2023/09/05 09:30:30;;;;;;;2.33;2.10;;;;;;;24.14;63.09;98133.59;5004704;28;20689;-29
2023/09/05 09:32:56;;;;;;;2.20;2.00;;;;;;;24.14;62.97;98126.78;5007021;28;20198;-27
2023/09/05 09:35:23;;;;;;;2.53;2.33;;;;;;;24.13;62.96;98121.59;5008775;28;20235;-31
2023/09/05 09:37:50;;;;;;;2.03;1.93;;;;;;;24.14;63.16;98124.19;4981107;28;20214;-28
2023/09/05 09:40:16;;;;;;;2.53;2.33;;;;;;;24.13;62.79;98119.03;5007935;28;20323;-27
2023/09/05 09:42:49;;;;;;;2.40;2.13;;;;;;;24.15;62.75;98127.63;5003162;28;20229;-29
2023/09/05 09:45:17;;;;;;;2.53;2.30;;;;;;;24.15;63.13;98125.06;5002479;28;20293;-27
2023/09/05 09:47:48;;;;;;;2.60;2.37;;;;;;;24.15;62.88;98119.91;5005591;28;20206;-29
2023/09/05 09:50:16;;;;;;;2.40;2.20;;;;;;;24.15;62.99;98115.66;4988624;28;20774;-27
2023/09/05 09:52:44;;;;;;;2.40;2.20;;;;;;;24.16;63.03;98119.09;5003677;28;20279;-27
2023/09/05 09:55:16;;;;;;;2.50;2.30;;;;;;;24.16;62.84;98108.84;5004760;28;20253;-28
2023/09/05 09:57:46;;;;;;;2.37;2.17;;;;;;;24.15;62.90;98107.97;5009923;28;20245;-27
2023/09/05 10:00:15;;;;;;;2.00;1.90;;;;;;;24.15;62.90;98110.53;4968887;28;20713;-29
2023/09/05 10:02:43;;;;;;;2.20;2.10;;;;;;;24.16;62.88;98101.13;4975436;28;20218;-27
2023/09/05 10:05:10;;;;;;;2.43;2.23;;;;;;;24.15;63.16;98097.69;5002625;28;20203;-27
2023/09/05 10:07:37;;;;;;;2.40;2.20;;;;;;;24.16;62.68;98094.28;4990620;28;20251;-27
2023/09/05 10:10:05;;;;;;;2.37;2.17;;;;;;;24.16;62.78;98094.28;5010012;28;20283;-27
2023/09/05 10:12:31;;;;;;;1.97;1.87;;;;;;;24.17;62.67;98093.47;5009747;28;20205;-27
2023/09/05 10:14:58;;;;;;;2.37;2.17;;;;;;;24.17;62.96;98096.03;4990355;28;20256;-28
2023/09/05 10:17:25;;;;;;;2.33;2.13;;;;;;;24.16;62.86;98101.97;4990790;28;20658;-31
2023/09/05 10:19:51;;;;;;;2.30;2.10;;;;;;;24.17;63.01;98092.59;4976300;28;20204;-27
2023/09/05 10:22:18;;;;;;;2.60;2.40;;;;;;;24.18;62.79;98102.03;4992616;28;20222;-28
2023/09/05 10:24:45;;;;;;;2.60;2.40;;;;;;;24.18;62.74;98092.63;4993140;28;20705;-32
2023/09/05 10:27:11;;;;;;;2.40;2.20;;;;;;;24.17;62.80;98093.47;4989865;28;20195;-31
2023/09/05 10:29:48;;;;;;;2.80;2.50;;;;;;;24.18;62.98;98097.78;4992584;28;20202;-27
2023/09/05 10:32:19;;;;;;;2.30;2.10;;;;;;;24.18;62.76;98097.78;5009620;28;20204;-31
2023/09/05 10:34:45;;;;;;;2.40;2.20;;;;;;;24.18;62.96;98090.06;4989885;28;20390;-27
2023/09/05 10:37:18;;;;;;;2.40;2.20;;;;;;;24.19;63.05;98086.66;5007604;28;20678;-28
2023/09/05 10:39:45;;;;;;;3.63;2.33;;;;;;;24.19;62.53;98080.66;4986293;28;20205;-27
2023/09/05 10:42:12;;;;;;;2.30;2.20;;;;;;;24.19;63.09;98078.09;5010552;28;20658;-27
2023/09/05 10:44:45;;;;;;;2.27;2.10;;;;;;;24.16;62.65;98073.72;5010678;28;20708;-29
2023/09/05 10:47:33;;;;;;;2.50;2.30;;;;;;;24.20;63.09;98080.72;4991840;28;20214;-27
2023/09/05 10:50:00;;;;;;;2.47;2.27;;;;;;;24.19;62.81;98066.09;5006352;28;20203;-27
2023/09/05 10:52:28;;;;;;;2.30;2.10;;;;;;;24.20;63.13;98064.41;5010908;28;20605;-33
2023/09/05 10:54:56;;;;;;;2.50;2.30;;;;;;;24.20;63.03;98080.72;5011266;28;20213;-29
2023/09/05 10:57:35;;;;;;;2.40;2.20;;;;;;;24.20;62.78;98060.16;5008734;28;20226;-27
2023/09/05 11:00:15;;;;;;;2.10;2.00;;;;;;;24.21;62.55;98061.00;5011385;28;20206;-27
2023/09/05 11:02:42;;;;;;;2.67;2.20;;;;;;;24.16;62.74;98052.34;5011384;28;20214;-27
2023/09/05 11:05:12;;;;;;;2.50;2.30;;;;;;;24.21;63.22;98053.31;5010455;28;20608;-29
2023/09/05 11:07:43;;;;;;;2.60;2.40;;;;;;;24.20;63.07;98056.72;5011078;28;20221;-27
2023/09/05 11:10:11;;;;;;;2.40;2.20;;;;;;;24.21;62.92;98056.75;5011545;28;20573;-28
2023/09/05 11:12:38;;;;;;;2.57;2.37;;;;;;;24.20;63.00;98055.03;5011453;28;20217;-27
2023/09/05 11:15:06;;;;;;;2.37;2.17;;;;;;;24.21;63.21;98056.75;5012944;28;20284;-35
2023/09/05 11:17:32;;;;;;;2.50;2.30;;;;;;;24.22;63.15;98044.78;5010310;28;20195;-27
2023/09/05 11:19:59;;;;;;;2.47;2.27;;;;;;;24.22;63.06;98042.22;5011505;28;20207;-29
2023/09/05 11:22:26;;;;;;;2.40;2.20;;;;;;;24.22;63.11;98042.22;5006903;28;20424;-27
2023/09/05 11:24:54;;;;;;;2.60;2.40;;;;;;;24.23;62.87;98038.81;5024696;28;20213;-27
2023/09/05 11:27:29;;;;;;;2.40;2.20;;;;;;;24.23;62.75;98033.69;5018867;28;20657;-28
2023/09/05 11:29:58;;;;;;;2.37;2.17;;;;;;;24.23;62.68;98037.13;5021929;28;20205;-27
2023/09/05 11:32:29;;;;;;;3.80;2.40;;;;;;;24.23;63.16;98025.97;5026195;28;20251;-29
2023/09/05 11:34:56;;;;;;;2.00;1.90;;;;;;;24.23;62.99;98032.00;5018195;28;20217;-27
2023/09/05 11:37:23;;;;;;;2.40;2.20;;;;;;;24.23;63.08;98024.28;5011683;28;20202;-31